sensor_id;sensor_type;location;lat;lon;timestamp;pressure;altitude;pressure_sealevel;temperature;humidity
56568;BME280;42456;49.956;20.004;2023-12-20T00:02:16;97792.23;;;7.98;45.39
56568;BME280;42456;49.956;20.004;2023-12-20T00:04:43;97790.16;;;7.96;45.85
56568;BME280;42456;49.956;20.004;2023-12-20T00:07:10;97786.28;;;7.95;45.42
56568;BME280;42456;49.956;20.004;2023-12-20T00:09:37;97779.49;;;7.93;45.62
56568;BME280;42456;49.956;20.004;2023-12-20T00:12:04;97778.55;;;7.92;45.20
56568;BME280;42456;49.956;20.004;2023-12-20T00:14:31;97778.25;;;7.92;45.35
56568;BME280;42456;49.956;20.004;2023-12-20T00:16:58;97776.83;;;7.91;45.32
56568;BME280;42456;49.956;20.004;2023-12-20T00:19:25;97769.20;;;7.90;45.23
56568;BME280;42456;49.956;20.004;2023-12-20T00:21:53;97777.25;;;7.89;45.48
56568;BME280;42456;49.956;20.004;2023-12-20T00:24:20;97765.54;;;7.86;45.28
56568;BME280;42456;49.956;20.004;2023-12-20T00:26:47;97761.19;;;7.84;45.34
56568;BME280;42456;49.956;20.004;2023-12-20T00:29:14;97751.05;;;7.82;45.53
56568;BME280;42456;49.956;20.004;2023-12-20T00:31:41;97757.14;;;7.79;45.47
56568;BME280;42456;49.956;20.004;2023-12-20T00:34:08;97758.46;;;7.78;45.52
56568;BME280;42456;49.956;20.004;2023-12-20T00:36:35;97751.08;;;7.76;45.45
56568;BME280;42456;49.956;20.004;2023-12-20T00:39:02;97745.41;;;7.74;45.74
56568;BME280;42456;49.956;20.004;2023-12-20T00:41:29;97746.40;;;7.72;45.56
56568;BME280;42456;49.956;20.004;2023-12-20T00:43:56;97738.61;;;7.70;45.65
56568;BME280;42456;49.956;20.004;2023-12-20T00:46:23;97743.68;;;7.69;45.52
56568;BME280;42456;49.956;20.004;2023-12-20T00:48:50;97740.71;;;7.67;45.60
56568;BME280;42456;49.956;20.004;2023-12-20T00:51:17;97738.67;;;7.66;45.56
56568;BME280;42456;49.956;20.004;2023-12-20T00:53:44;97739.64;;;7.65;45.65
56568;BME280;42456;49.956;20.004;2023-12-20T00:56:10;97739.40;;;7.65;45.52
56568;BME280;42456;49.956;20.004;2023-12-20T00:58:37;97738.13;;;7.64;45.57
56568;BME280;42456;49.956;20.004;2023-12-20T01:01:04;97741.13;;;7.64;45.61
56568;BME280;42456;49.956;20.004;2023-12-20T01:03:31;97741.06;;;7.64;45.80
56568;BME280;42456;49.956;20.004;2023-12-20T01:05:58;97736.68;;;7.66;45.80
56568;BME280;42456;49.956;20.004;2023-12-20T01:08:25;97730.89;;;7.66;45.85
56568;BME280;42456;49.956;20.004;2023-12-20T01:10:52;97728.77;;;7.67;45.67
56568;BME280;42456;49.956;20.004;2023-12-20T01:13:18;97722.27;;;7.67;45.84
56568;BME280;42456;49.956;20.004;2023-12-20T01:15:46;97719.45;;;7.67;45.75
56568;BME280;42456;49.956;20.004;2023-12-20T01:18:14;97724.48;;;7.67;45.78
56568;BME280;42456;49.956;20.004;2023-12-20T01:20:41;97727.58;;;7.68;45.77
56568;BME280;42456;49.956;20.004;2023-12-20T01:23:08;97728.80;;;7.68;45.90
56568;BME280;42456;49.956;20.004;2023-12-20T01:25:35;97724.96;;;7.67;46.02
56568;BME280;42456;49.956;20.004;2023-12-20T01:28:01;97721.63;;;7.66;45.85
56568;BME280;42456;49.956;20.004;2023-12-20T01:30:30;97719.02;;;7.66;46.07
56568;BME280;42456;49.956;20.004;2023-12-20T01:32:56;97714.06;;;7.64;45.98
56568;BME280;42456;49.956;20.004;2023-12-20T01:35:23;97707.42;;;7.62;46.14
56568;BME280;42456;49.956;20.004;2023-12-20T01:37:50;97707.80;;;7.61;46.22
56568;BME280;42456;49.956;20.004;2023-12-20T01:40:18;97705.14;;;7.59;46.32
56568;BME280;42456;49.956;20.004;2023-12-20T01:42:46;97698.19;;;7.57;46.35
56568;BME280;42456;49.956;20.004;2023-12-20T01:45:13;97691.91;;;7.55;46.39
56568;BME280;42456;49.956;20.004;2023-12-20T01:47:40;97680.24;;;7.52;46.53
56568;BME280;42456;49.956;20.004;2023-12-20T01:50:08;97672.90;;;7.48;46.57
56568;BME280;42456;49.956;20.004;2023-12-20T01:52:36;97671.08;;;7.45;46.64
56568;BME280;42456;49.956;20.004;2023-12-20T01:55:04;97665.23;;;7.42;46.59
56568;BME280;42456;49.956;20.004;2023-12-20T01:57:38;97658.66;;;7.38;46.76
56568;BME280;42456;49.956;20.004;2023-12-20T02:00:09;97655.59;;;7.36;46.63
56568;BME280;42456;49.956;20.004;2023-12-20T02:02:39;97653.87;;;7.33;46.81
56568;BME280;42456;49.956;20.004;2023-12-20T02:05:07;97653.28;;;7.30;46.63
56568;BME280;42456;49.956;20.004;2023-12-20T02:07:34;97656.47;;;7.27;46.84
56568;BME280;42456;49.956;20.004;2023-12-20T02:10:02;97648.41;;;7.24;46.78
56568;BME280;42456;49.956;20.004;2023-12-20T02:12:31;97642.81;;;7.22;46.64
56568;BME280;42456;49.956;20.004;2023-12-20T02:14:57;97637.88;;;7.19;46.78
56568;BME280;42456;49.956;20.004;2023-12-20T02:17:25;97639.48;;;7.17;46.68
56568;BME280;42456;49.956;20.004;2023-12-20T02:19:53;97633.29;;;7.15;46.49
56568;BME280;42456;49.956;20.004;2023-12-20T02:22:20;97638.05;;;7.12;46.54
56568;BME280;42456;49.956;20.004;2023-12-20T02:24:47;97636.17;;;7.09;46.53
56568;BME280;42456;49.956;20.004;2023-12-20T02:27:15;97628.06;;;7.07;46.52
56568;BME280;42456;49.956;20.004;2023-12-20T02:29:46;97622.16;;;7.05;46.51
56568;BME280;42456;49.956;20.004;2023-12-20T02:32:14;97613.34;;;7.02;46.44
56568;BME280;42456;49.956;20.004;2023-12-20T02:34:40;97610.67;;;7.00;46.46
56568;BME280;42456;49.956;20.004;2023-12-20T02:37:07;97607.63;;;6.98;46.35
56568;BME280;42456;49.956;20.004;2023-12-20T02:39:34;97606.97;;;6.97;46.44
56568;BME280;42456;49.956;20.004;2023-12-20T02:42:01;97605.92;;;6.96;46.30
56568;BME280;42456;49.956;20.004;2023-12-20T02:44:28;97605.98;;;6.95;46.36
56568;BME280;42456;49.956;20.004;2023-12-20T02:46:55;97603.42;;;6.94;46.16
56568;BME280;42456;49.956;20.004;2023-12-20T02:49:22;97605.38;;;6.96;46.14
56568;BME280;42456;49.956;20.004;2023-12-20T02:51:49;97598.05;;;6.96;46.21
56568;BME280;42456;49.956;20.004;2023-12-20T02:54:16;97593.65;;;6.95;46.16
56568;BME280;42456;49.956;20.004;2023-12-20T02:56:43;97596.42;;;6.93;45.99
56568;BME280;42456;49.956;20.004;2023-12-20T02:59:09;97601.99;;;6.91;46.04
56568;BME280;42456;49.956;20.004;2023-12-20T03:01:42;97603.27;;;6.89;46.15
56568;BME280;42456;49.956;20.004;2023-12-20T03:04:10;97609.27;;;6.86;46.26
56568;BME280;42456;49.956;20.004;2023-12-20T03:06:38;97615.20;;;6.84;46.19
56568;BME280;42456;49.956;20.004;2023-12-20T03:09:05;97618.98;;;6.81;46.19
56568;BME280;42456;49.956;20.004;2023-12-20T03:11:32;97621.95;;;6.77;46.18
56568;BME280;42456;49.956;20.004;2023-12-20T03:13:59;97618.40;;;6.74;46.24
56568;BME280;42456;49.956;20.004;2023-12-20T03:16:26;97610.89;;;6.72;45.92
56568;BME280;42456;49.956;20.004;2023-12-20T03:18:52;97605.65;;;6.71;46.19
56568;BME280;42456;49.956;20.004;2023-12-20T03:21:20;97603.17;;;6.70;46.03
56568;BME280;42456;49.956;20.004;2023-12-20T03:23:46;97604.49;;;6.69;46.25
56568;BME280;42456;49.956;20.004;2023-12-20T03:26:13;97604.24;;;6.68;46.04
56568;BME280;42456;49.956;20.004;2023-12-20T03:28:40;97599.89;;;6.68;46.10
56568;BME280;42456;49.956;20.004;2023-12-20T03:31:09;97597.86;;;6.67;46.19
56568;BME280;42456;49.956;20.004;2023-12-20T03:33:37;97597.39;;;6.67;45.97
56568;BME280;42456;49.956;20.004;2023-12-20T03:36:04;97596.84;;;6.66;46.27
56568;BME280;42456;49.956;20.004;2023-12-20T03:38:31;97597.96;;;6.66;46.31
56568;BME280;42456;49.956;20.004;2023-12-20T03:40:57;97600.39;;;6.67;46.46
56568;BME280;42456;49.956;20.004;2023-12-20T03:43:24;97601.45;;;6.69;46.35
56568;BME280;42456;49.956;20.004;2023-12-20T03:45:51;97606.16;;;6.70;46.57
56568;BME280;42456;49.956;20.004;2023-12-20T03:48:18;97602.25;;;6.73;46.47
56568;BME280;42456;49.956;20.004;2023-12-20T03:50:45;97608.59;;;6.77;46.39
56568;BME280;42456;49.956;20.004;2023-12-20T03:53:12;97605.89;;;6.80;46.56
56568;BME280;42456;49.956;20.004;2023-12-20T03:55:38;97608.88;;;6.84;46.56
56568;BME280;42456;49.956;20.004;2023-12-20T03:58:05;97613.73;;;6.89;46.68
56568;BME280;42456;49.956;20.004;2023-12-20T04:00:32;97614.85;;;6.92;46.81
56568;BME280;42456;49.956;20.004;2023-12-20T04:02:59;97610.02;;;6.95;46.60
56568;BME280;42456;49.956;20.004;2023-12-20T04:05:26;97607.20;;;6.98;46.72
56568;BME280;42456;49.956;20.004;2023-12-20T04:07:53;97603.21;;;7.00;46.78
56568;BME280;42456;49.956;20.004;2023-12-20T04:10:20;97600.46;;;7.03;46.89
56568;BME280;42456;49.956;20.004;2023-12-20T04:12:47;97599.33;;;7.05;46.62
56568;BME280;42456;49.956;20.004;2023-12-20T04:15:14;97596.43;;;7.07;46.70
56568;BME280;42456;49.956;20.004;2023-12-20T04:17:41;97597.88;;;7.09;46.70
56568;BME280;42456;49.956;20.004;2023-12-20T04:20:09;97594.34;;;7.10;46.85
56568;BME280;42456;49.956;20.004;2023-12-20T04:22:36;97594.02;;;7.11;46.95
56568;BME280;42456;49.956;20.004;2023-12-20T04:25:03;97592.05;;;7.12;46.90
56568;BME280;42456;49.956;20.004;2023-12-20T04:27:30;97590.63;;;7.13;47.01
56568;BME280;42456;49.956;20.004;2023-12-20T04:29:57;97590.66;;;7.13;47.34
56568;BME280;42456;49.956;20.004;2023-12-20T04:32:24;97589.19;;;7.13;46.99
56568;BME280;42456;49.956;20.004;2023-12-20T04:34:51;97586.58;;;7.13;47.25
56568;BME280;42456;49.956;20.004;2023-12-20T04:37:17;97589.95;;;7.13;47.46
56568;BME280;42456;49.956;20.004;2023-12-20T04:39:44;97594.95;;;7.12;47.26
56568;BME280;42456;49.956;20.004;2023-12-20T04:42:11;97593.31;;;7.11;47.45
56568;BME280;42456;49.956;20.004;2023-12-20T04:44:38;97590.30;;;7.10;47.51
56568;BME280;42456;49.956;20.004;2023-12-20T04:47:06;97594.14;;;7.09;47.43
56568;BME280;42456;49.956;20.004;2023-12-20T04:49:32;97592.23;;;7.09;47.47
56568;BME280;42456;49.956;20.004;2023-12-20T04:51:59;97594.59;;;7.08;47.54
56568;BME280;42456;49.956;20.004;2023-12-20T04:54:26;97594.27;;;7.08;47.57
56568;BME280;42456;49.956;20.004;2023-12-20T04:56:53;97592.98;;;7.09;47.96
56568;BME280;42456;49.956;20.004;2023-12-20T04:59:20;97601.98;;;7.08;47.98
56568;BME280;42456;49.956;20.004;2023-12-20T05:01:47;97607.48;;;7.08;47.74
56568;BME280;42456;49.956;20.004;2023-12-20T05:04:14;97616.14;;;7.07;47.97
56568;BME280;42456;49.956;20.004;2023-12-20T05:06:41;97612.67;;;7.04;47.90
56568;BME280;42456;49.956;20.004;2023-12-20T05:09:08;97607.27;;;6.99;47.88
56568;BME280;42456;49.956;20.004;2023-12-20T05:11:35;97600.38;;;6.95;48.35
56568;BME280;42456;49.956;20.004;2023-12-20T05:14:02;97599.66;;;6.91;48.54
56568;BME280;42456;49.956;20.004;2023-12-20T05:16:29;97601.27;;;6.86;48.77
56568;BME280;42456;49.956;20.004;2023-12-20T05:18:56;97608.81;;;6.83;49.06
56568;BME280;42456;49.956;20.004;2023-12-20T05:21:23;97607.09;;;6.77;49.24
56568;BME280;42456;49.956;20.004;2023-12-20T05:23:50;97614.10;;;6.72;49.95
56568;BME280;42456;49.956;20.004;2023-12-20T05:26:17;97610.29;;;6.65;50.33
56568;BME280;42456;49.956;20.004;2023-12-20T05:28:43;97608.77;;;6.58;51.15
56568;BME280;42456;49.956;20.004;2023-12-20T05:31:10;97602.44;;;6.51;51.75
56568;BME280;42456;49.956;20.004;2023-12-20T05:33:37;97602.77;;;6.44;52.31
56568;BME280;42456;49.956;20.004;2023-12-20T05:36:04;97604.77;;;6.39;52.60
56568;BME280;42456;49.956;20.004;2023-12-20T05:38:31;97604.61;;;6.34;53.46
56568;BME280;42456;49.956;20.004;2023-12-20T05:40:58;97610.84;;;6.29;53.94
56568;BME280;42456;49.956;20.004;2023-12-20T05:43:25;97597.40;;;6.26;54.11
56568;BME280;42456;49.956;20.004;2023-12-20T05:45:52;97594.10;;;6.22;55.02
56568;BME280;42456;49.956;20.004;2023-12-20T05:48:19;97586.83;;;6.19;55.62
56568;BME280;42456;49.956;20.004;2023-12-20T05:50:46;97579.45;;;6.16;55.99
56568;BME280;42456;49.956;20.004;2023-12-20T05:53:13;97578.13;;;6.12;56.42
56568;BME280;42456;49.956;20.004;2023-12-20T05:55:40;97581.27;;;6.09;56.84
56568;BME280;42456;49.956;20.004;2023-12-20T05:58:06;97587.52;;;6.06;57.22
56568;BME280;42456;49.956;20.004;2023-12-20T06:00:34;97583.39;;;6.02;58.10
56568;BME280;42456;49.956;20.004;2023-12-20T06:03:01;97582.64;;;5.97;58.15
56568;BME280;42456;49.956;20.004;2023-12-20T06:05:31;97585.88;;;5.92;59.06
56568;BME280;42456;49.956;20.004;2023-12-20T06:07:59;97586.35;;;5.88;59.52
56568;BME280;42456;49.956;20.004;2023-12-20T06:10:29;97580.38;;;5.84;60.05
56568;BME280;42456;49.956;20.004;2023-12-20T06:12:56;97587.26;;;5.79;60.93
56568;BME280;42456;49.956;20.004;2023-12-20T06:15:25;97598.30;;;5.74;61.20
56568;BME280;42456;49.956;20.004;2023-12-20T06:17:52;97601.53;;;5.70;62.14
56568;BME280;42456;49.956;20.004;2023-12-20T06:20:18;97603.28;;;5.65;62.25
56568;BME280;42456;49.956;20.004;2023-12-20T06:22:45;97599.54;;;5.60;62.78
56568;BME280;42456;49.956;20.004;2023-12-20T06:25:12;97603.20;;;5.56;63.37
56568;BME280;42456;49.956;20.004;2023-12-20T06:27:39;97607.41;;;5.52;63.76
56568;BME280;42456;49.956;20.004;2023-12-20T06:30:08;97609.38;;;5.48;64.24
56568;BME280;42456;49.956;20.004;2023-12-20T06:32:38;97610.10;;;5.44;64.54
56568;BME280;42456;49.956;20.004;2023-12-20T06:35:06;97605.90;;;5.42;64.73
56568;BME280;42456;49.956;20.004;2023-12-20T06:37:33;97611.16;;;5.41;65.08
56568;BME280;42456;49.956;20.004;2023-12-20T06:40:00;97613.06;;;5.39;65.80
56568;BME280;42456;49.956;20.004;2023-12-20T06:42:27;97620.52;;;5.36;66.34
56568;BME280;42456;49.956;20.004;2023-12-20T06:44:58;97612.11;;;5.33;66.25
56568;BME280;42456;49.956;20.004;2023-12-20T06:47:25;97611.60;;;5.31;67.39
56568;BME280;42456;49.956;20.004;2023-12-20T06:49:53;97603.04;;;5.28;67.58
56568;BME280;42456;49.956;20.004;2023-12-20T06:52:20;97605.23;;;5.24;68.17
56568;BME280;42456;49.956;20.004;2023-12-20T06:54:47;97605.19;;;5.20;68.69
56568;BME280;42456;49.956;20.004;2023-12-20T06:57:14;97611.75;;;5.18;68.66
56568;BME280;42456;49.956;20.004;2023-12-20T06:59:41;97620.76;;;5.16;69.37
56568;BME280;42456;49.956;20.004;2023-12-20T07:02:08;97621.39;;;5.13;69.57
56568;BME280;42456;49.956;20.004;2023-12-20T07:04:41;97616.23;;;5.11;70.33
56568;BME280;42456;49.956;20.004;2023-12-20T07:07:08;97620.80;;;5.08;70.85
56568;BME280;42456;49.956;20.004;2023-12-20T07:09:35;97615.77;;;5.06;70.92
56568;BME280;42456;49.956;20.004;2023-12-20T07:12:02;97616.34;;;5.05;71.57
56568;BME280;42456;49.956;20.004;2023-12-20T07:14:29;97616.05;;;5.04;71.91
56568;BME280;42456;49.956;20.004;2023-12-20T07:16:56;97623.39;;;5.05;72.13
56568;BME280;42456;49.956;20.004;2023-12-20T07:19:23;97628.37;;;5.03;71.98
56568;BME280;42456;49.956;20.004;2023-12-20T07:21:50;97636.40;;;5.03;72.68
56568;BME280;42456;49.956;20.004;2023-12-20T07:24:17;97637.55;;;5.03;73.01
56568;BME280;42456;49.956;20.004;2023-12-20T07:26:44;97627.25;;;5.04;73.36
56568;BME280;42456;49.956;20.004;2023-12-20T07:29:11;97630.95;;;5.05;73.59
56568;BME280;42456;49.956;20.004;2023-12-20T07:31:38;97634.48;;;5.04;73.73
56568;BME280;42456;49.956;20.004;2023-12-20T07:34:05;97640.45;;;5.03;73.89
56568;BME280;42456;49.956;20.004;2023-12-20T07:36:32;97638.46;;;5.01;74.22
56568;BME280;42456;49.956;20.004;2023-12-20T07:38:59;97641.36;;;5.00;74.22
56568;BME280;42456;49.956;20.004;2023-12-20T07:41:26;97643.15;;;4.99;74.76
56568;BME280;42456;49.956;20.004;2023-12-20T07:43:53;97649.65;;;4.99;74.92
56568;BME280;42456;49.956;20.004;2023-12-20T07:46:20;97645.98;;;4.99;75.10
56568;BME280;42456;49.956;20.004;2023-12-20T07:48:49;97647.33;;;4.99;75.20
56568;BME280;42456;49.956;20.004;2023-12-20T07:51:16;97649.95;;;4.98;75.45
56568;BME280;42456;49.956;20.004;2023-12-20T07:53:43;97648.81;;;4.96;76.19
56568;BME280;42456;49.956;20.004;2023-12-20T07:56:17;97646.60;;;4.96;76.15
56568;BME280;42456;49.956;20.004;2023-12-20T07:58:46;97645.42;;;4.96;76.13
56568;BME280;42456;49.956;20.004;2023-12-20T08:01:19;97651.48;;;4.95;76.72
56568;BME280;42456;49.956;20.004;2023-12-20T08:03:49;97654.35;;;4.93;76.80
56568;BME280;42456;49.956;20.004;2023-12-20T08:06:16;97659.52;;;4.94;77.00
56568;BME280;42456;49.956;20.004;2023-12-20T08:08:44;97654.95;;;4.96;77.70
56568;BME280;42456;49.956;20.004;2023-12-20T08:11:20;97653.30;;;4.98;77.84
56568;BME280;42456;49.956;20.004;2023-12-20T08:13:47;97652.23;;;5.01;77.64
56568;BME280;42456;49.956;20.004;2023-12-20T08:16:15;97643.92;;;5.02;77.56
56568;BME280;42456;49.956;20.004;2023-12-20T08:18:45;97642.44;;;5.02;77.90
56568;BME280;42456;49.956;20.004;2023-12-20T08:21:12;97640.94;;;5.02;77.85
56568;BME280;42456;49.956;20.004;2023-12-20T08:23:40;97641.63;;;5.04;78.02
56568;BME280;42456;49.956;20.004;2023-12-20T08:26:07;97645.42;;;5.04;78.52
56568;BME280;42456;49.956;20.004;2023-12-20T08:28:34;97644.09;;;5.04;78.72
56568;BME280;42456;49.956;20.004;2023-12-20T08:31:04;97646.06;;;5.05;78.98
56568;BME280;42456;49.956;20.004;2023-12-20T08:33:31;97648.41;;;5.05;78.68
56568;BME280;42456;49.956;20.004;2023-12-20T08:35:58;97649.30;;;5.06;79.06
56568;BME280;42456;49.956;20.004;2023-12-20T08:38:25;97645.87;;;5.05;79.08
56568;BME280;42456;49.956;20.004;2023-12-20T08:40:52;97639.28;;;5.04;79.03
56568;BME280;42456;49.956;20.004;2023-12-20T08:43:19;97643.64;;;5.05;79.57
56568;BME280;42456;49.956;20.004;2023-12-20T08:45:47;97640.89;;;5.04;79.48
56568;BME280;42456;49.956;20.004;2023-12-20T08:48:14;97643.43;;;5.05;79.53
56568;BME280;42456;49.956;20.004;2023-12-20T08:50:41;97649.27;;;5.06;79.87
56568;BME280;42456;49.956;20.004;2023-12-20T08:53:08;97641.62;;;5.07;79.85
56568;BME280;42456;49.956;20.004;2023-12-20T08:55:35;97642.52;;;5.06;79.99
56568;BME280;42456;49.956;20.004;2023-12-20T08:58:03;97644.50;;;5.06;80.55
56568;BME280;42456;49.956;20.004;2023-12-20T09:00:30;97641.09;;;5.07;80.51
56568;BME280;42456;49.956;20.004;2023-12-20T09:02:57;97646.20;;;5.08;80.84
56568;BME280;42456;49.956;20.004;2023-12-20T09:05:24;97646.98;;;5.11;80.45
56568;BME280;42456;49.956;20.004;2023-12-20T09:07:51;97645.61;;;5.12;80.32
56568;BME280;42456;49.956;20.004;2023-12-20T09:10:19;97649.50;;;5.12;81.06
56568;BME280;42456;49.956;20.004;2023-12-20T09:12:52;97649.08;;;5.13;80.63
56568;BME280;42456;49.956;20.004;2023-12-20T09:15:25;97644.80;;;5.13;80.63
56568;BME280;42456;49.956;20.004;2023-12-20T09:17:53;97642.89;;;5.13;80.84
56568;BME280;42456;49.956;20.004;2023-12-20T09:20:20;97638.84;;;5.12;80.59
56568;BME280;42456;49.956;20.004;2023-12-20T09:22:48;97643.16;;;5.12;80.98
56568;BME280;42456;49.956;20.004;2023-12-20T09:25:15;97642.38;;;5.11;81.19
56568;BME280;42456;49.956;20.004;2023-12-20T09:27:44;97642.48;;;5.12;81.38
56568;BME280;42456;49.956;20.004;2023-12-20T09:30:12;97640.65;;;5.10;81.23
56568;BME280;42456;49.956;20.004;2023-12-20T09:32:51;97640.05;;;5.09;81.05
56568;BME280;42456;49.956;20.004;2023-12-20T09:35:18;97640.09;;;5.08;81.53
56568;BME280;42456;49.956;20.004;2023-12-20T09:37:45;97634.30;;;5.07;81.45
56568;BME280;42456;49.956;20.004;2023-12-20T09:40:14;97626.70;;;5.07;81.80
56568;BME280;42456;49.956;20.004;2023-12-20T09:42:48;97627.20;;;5.06;82.01
56568;BME280;42456;49.956;20.004;2023-12-20T09:45:19;97625.15;;;5.05;81.84
56568;BME280;42456;49.956;20.004;2023-12-20T09:47:49;97622.19;;;5.02;82.08
56568;BME280;42456;49.956;20.004;2023-12-20T09:50:18;97618.57;;;4.99;82.28
56568;BME280;42456;49.956;20.004;2023-12-20T09:52:53;97617.39;;;4.98;82.37
56568;BME280;42456;49.956;20.004;2023-12-20T09:55:25;97616.56;;;4.99;82.28
56568;BME280;42456;49.956;20.004;2023-12-20T09:57:52;97616.67;;;4.99;82.42
56568;BME280;42456;49.956;20.004;2023-12-20T10:00:20;97612.84;;;4.99;82.67
56568;BME280;42456;49.956;20.004;2023-12-20T10:02:51;97606.56;;;4.98;82.50
56568;BME280;42456;49.956;20.004;2023-12-20T10:05:30;97605.41;;;4.96;82.68
56568;BME280;42456;49.956;20.004;2023-12-20T10:07:59;97602.29;;;4.95;82.68
56568;BME280;42456;49.956;20.004;2023-12-20T10:10:28;97596.61;;;4.94;83.04
56568;BME280;42456;49.956;20.004;2023-12-20T10:13:11;97600.53;;;4.93;83.00
56568;BME280;42456;49.956;20.004;2023-12-20T10:15:39;97598.74;;;4.94;82.92
56568;BME280;42456;49.956;20.004;2023-12-20T10:18:09;97595.55;;;4.94;83.01
56568;BME280;42456;49.956;20.004;2023-12-20T10:20:40;97597.94;;;4.93;83.16
56568;BME280;42456;49.956;20.004;2023-12-20T10:23:08;97605.78;;;4.90;82.94
56568;BME280;42456;49.956;20.004;2023-12-20T10:25:35;97602.52;;;4.88;83.55
56568;BME280;42456;49.956;20.004;2023-12-20T10:28:13;97608.40;;;4.87;83.36
56568;BME280;42456;49.956;20.004;2023-12-20T10:30:41;97603.48;;;4.85;83.49
56568;BME280;42456;49.956;20.004;2023-12-20T10:33:10;97609.95;;;4.83;83.50
56568;BME280;42456;49.956;20.004;2023-12-20T10:35:39;97605.25;;;4.82;83.71
56568;BME280;42456;49.956;20.004;2023-12-20T10:38:12;97603.98;;;4.81;84.00
56568;BME280;42456;49.956;20.004;2023-12-20T10:40:41;97600.64;;;4.81;83.99
56568;BME280;42456;49.956;20.004;2023-12-20T10:43:08;97598.50;;;4.80;83.54
56568;BME280;42456;49.956;20.004;2023-12-20T10:45:36;97603.85;;;4.79;83.86
56568;BME280;42456;49.956;20.004;2023-12-20T10:48:04;97599.73;;;4.77;83.99
56568;BME280;42456;49.956;20.004;2023-12-20T10:50:33;97599.30;;;4.76;83.82
56568;BME280;42456;49.956;20.004;2023-12-20T10:53:02;97593.38;;;4.74;83.66
56568;BME280;42456;49.956;20.004;2023-12-20T10:55:30;97591.42;;;4.73;83.97
56568;BME280;42456;49.956;20.004;2023-12-20T10:58:01;97589.35;;;4.71;83.84
56568;BME280;42456;49.956;20.004;2023-12-20T11:00:29;97583.88;;;4.71;83.79
56568;BME280;42456;49.956;20.004;2023-12-20T11:03:00;97584.95;;;4.70;83.96
56568;BME280;42456;49.956;20.004;2023-12-20T11:08:32;97588.63;;;4.70;84.34
56568;BME280;42456;49.956;20.004;2023-12-20T11:14:01;97593.66;;;4.71;83.87
56568;BME280;42456;49.956;20.004;2023-12-20T11:16:33;97593.90;;;4.71;84.21
56568;BME280;42456;49.956;20.004;2023-12-20T11:19:17;97589.91;;;4.70;84.56
56568;BME280;42456;49.956;20.004;2023-12-20T11:21:46;97589.00;;;4.70;84.41
56568;BME280;42456;49.956;20.004;2023-12-20T11:24:15;97588.52;;;4.70;84.15
56568;BME280;42456;49.956;20.004;2023-12-20T11:26:47;97591.39;;;4.71;84.21
56568;BME280;42456;49.956;20.004;2023-12-20T11:31:56;97593.11;;;4.72;84.24
56568;BME280;42456;49.956;20.004;2023-12-20T11:34:27;97592.30;;;4.72;84.45
56568;BME280;42456;49.956;20.004;2023-12-20T11:36:59;97595.36;;;4.71;84.05
56568;BME280;42456;49.956;20.004;2023-12-20T11:39:28;97598.53;;;4.70;84.60
56568;BME280;42456;49.956;20.004;2023-12-20T11:41:57;97596.73;;;4.68;84.20
56568;BME280;42456;49.956;20.004;2023-12-20T11:44:31;97590.25;;;4.66;84.69
56568;BME280;42456;49.956;20.004;2023-12-20T11:46:59;97593.84;;;4.67;84.56
56568;BME280;42456;49.956;20.004;2023-12-20T11:49:26;97585.64;;;4.67;84.50
56568;BME280;42456;49.956;20.004;2023-12-20T11:51:56;97581.81;;;4.68;85.00
56568;BME280;42456;49.956;20.004;2023-12-20T11:54:23;97581.19;;;4.69;84.95
56568;BME280;42456;49.956;20.004;2023-12-20T11:56:50;97578.63;;;4.70;85.13
56568;BME280;42456;49.956;20.004;2023-12-20T11:59:17;97577.90;;;4.69;84.34
56568;BME280;42456;49.956;20.004;2023-12-20T12:01:52;97577.98;;;4.68;84.91
56568;BME280;42456;49.956;20.004;2023-12-20T12:04:21;97578.67;;;4.68;85.06
56568;BME280;42456;49.956;20.004;2023-12-20T12:06:49;97582.50;;;4.68;85.23
56568;BME280;42456;49.956;20.004;2023-12-20T12:09:16;97583.85;;;4.68;85.34
56568;BME280;42456;49.956;20.004;2023-12-20T12:11:43;97587.29;;;4.67;85.22
56568;BME280;42456;49.956;20.004;2023-12-20T12:14:11;97585.63;;;4.67;85.43
56568;BME280;42456;49.956;20.004;2023-12-20T12:16:38;97586.45;;;4.68;85.67
56568;BME280;42456;49.956;20.004;2023-12-20T12:19:05;97587.89;;;4.68;85.22
56568;BME280;42456;49.956;20.004;2023-12-20T12:21:31;97583.66;;;4.69;85.46
56568;BME280;42456;49.956;20.004;2023-12-20T12:24:09;97581.54;;;4.70;85.64
56568;BME280;42456;49.956;20.004;2023-12-20T12:26:37;97571.15;;;4.72;85.98
56568;BME280;42456;49.956;20.004;2023-12-20T12:29:07;97575.54;;;4.74;86.00
56568;BME280;42456;49.956;20.004;2023-12-20T12:31:34;97571.29;;;4.75;85.59
56568;BME280;42456;49.956;20.004;2023-12-20T12:34:01;97568.49;;;4.76;85.77
56568;BME280;42456;49.956;20.004;2023-12-20T12:36:29;97563.20;;;4.77;85.72
56568;BME280;42456;49.956;20.004;2023-12-20T12:38:57;97557.19;;;4.78;85.68
56568;BME280;42456;49.956;20.004;2023-12-20T12:41:24;97555.79;;;4.81;85.93
56568;BME280;42456;49.956;20.004;2023-12-20T12:43:52;97553.97;;;4.81;85.86
56568;BME280;42456;49.956;20.004;2023-12-20T12:46:19;97556.88;;;4.81;85.81
56568;BME280;42456;49.956;20.004;2023-12-20T12:48:47;97560.80;;;4.82;86.07
56568;BME280;42456;49.956;20.004;2023-12-20T12:51:14;97565.36;;;4.83;86.21
56568;BME280;42456;49.956;20.004;2023-12-20T12:53:41;97568.40;;;4.83;86.01
56568;BME280;42456;49.956;20.004;2023-12-20T12:56:09;97566.20;;;4.82;85.90
56568;BME280;42456;49.956;20.004;2023-12-20T12:58:36;97568.91;;;4.80;86.01
56568;BME280;42456;49.956;20.004;2023-12-20T13:01:03;97568.63;;;4.79;85.92
56568;BME280;42456;49.956;20.004;2023-12-20T13:03:30;97569.66;;;4.78;85.65
56568;BME280;42456;49.956;20.004;2023-12-20T13:05:57;97575.02;;;4.77;85.68
56568;BME280;42456;49.956;20.004;2023-12-20T13:08:25;97577.24;;;4.77;86.00
56568;BME280;42456;49.956;20.004;2023-12-20T13:10:52;97571.73;;;4.78;85.97
56568;BME280;42456;49.956;20.004;2023-12-20T13:13:19;97566.09;;;4.78;86.13